createdAt,value
2023-03-04T00:00:56.475Z,51.52
2023-03-04T00:04:03.466Z,55.52
2023-03-04T00:07:09.449Z,60.69
2023-03-04T00:10:16.438Z,63.61
2023-03-04T00:13:22.501Z,65.73
2023-03-04T00:16:31.995Z,66.26
2023-03-04T00:19:38.026Z,64.44
2023-03-04T00:22:44.752Z,64.53
2023-03-04T00:25:50.692Z,66.42
2023-03-04T00:28:57.512Z,64.64
2023-03-04T00:32:08.267Z,66.37
2023-03-04T00:35:15.082Z,69.47
2023-03-04T00:38:21.049Z,72.16
2023-03-04T00:41:27.980Z,70.72
2023-03-04T00:44:33.959Z,72.10
2023-03-04T00:47:43.459Z,72.81
2023-03-04T00:50:49.461Z,72.31
2023-03-04T00:53:56.206Z,69.15
2023-03-04T00:57:02.269Z,69.94
2023-03-04T01:00:11.467Z,70.95
2023-03-04T01:03:20.051Z,70.15
2023-03-04T01:06:27.128Z,70.96
2023-03-04T01:09:33.340Z,70.28
2023-03-04T01:12:40.402Z,66.76
2023-03-04T01:15:46.683Z,67.56
2023-03-04T01:18:56.234Z,68.30
2023-03-04T01:22:02.177Z,68.05
2023-03-04T01:25:11.201Z,68.66
2023-03-04T01:28:17.670Z,67.93
2023-03-04T01:31:24.529Z,68.75
2023-03-04T01:34:33.770Z,65.17
2023-03-04T01:37:40.953Z,64.72
2023-03-04T01:40:48.764Z,65.75
2023-03-04T01:43:57.352Z,65.80
2023-03-04T01:47:03.627Z,67.19
2023-03-04T01:50:25.138Z,65.40
2023-03-04T01:53:39.796Z,61.68
2023-03-04T01:56:52.219Z,62.50
2023-03-04T02:00:26.715Z,61.99
2023-03-04T02:03:34.120Z,61.54
2023-03-04T02:06:46.021Z,62.03
2023-03-04T02:09:56.632Z,60.92
2023-03-04T02:13:04.548Z,60.66
2023-03-04T02:16:11.621Z,59.74
2023-03-04T02:19:38.753Z,60.72
2023-03-04T02:23:11.070Z,61.68
2023-03-04T02:26:23.205Z,61.88
2023-03-04T02:29:32.570Z,59.88
2023-03-04T02:32:38.937Z,60.70
2023-03-04T02:35:46.084Z,60.10
2023-03-04T02:38:54.558Z,60.72
2023-03-04T02:42:06.316Z,62.39
2023-03-04T02:45:40.558Z,57.80
2023-03-04T02:48:47.924Z,55.55
2023-03-04T02:52:01.468Z,56.14
2023-03-04T02:55:09.558Z,56.66
2023-03-04T02:58:19.075Z,57.53
2023-03-04T03:01:30.803Z,58.12
2023-03-04T03:04:41.538Z,60.45
2023-03-04T03:07:51.262Z,57.80
2023-03-04T03:10:58.185Z,56.93
2023-03-04T03:14:08.666Z,55.42
2023-03-04T03:17:15.456Z,56.25
2023-03-04T03:20:28.893Z,52.49
2023-03-04T03:23:35.624Z,53.92
2023-03-04T03:26:42.489Z,50.69
2023-03-04T03:29:51.998Z,47.75
2023-03-04T03:33:09.879Z,46.78
2023-03-04T03:36:25.233Z,46.37
2023-03-04T03:39:31.258Z,45.73
2023-03-04T03:42:38.064Z,46.53
2023-03-04T03:45:46.948Z,45.59
2023-03-04T03:48:53.739Z,44.91
2023-03-04T03:51:59.934Z,45.46
2023-03-04T03:55:10.959Z,45.55
2023-03-04T03:58:17.342Z,46.27
2023-03-04T04:01:26.742Z,48.27
2023-03-04T04:04:32.695Z,46.81
2023-03-04T04:07:41.973Z,49.70
2023-03-04T04:10:48.102Z,51.84
2023-03-04T04:13:54.823Z,47.69
2023-03-04T04:17:04.049Z,47.80
2023-03-04T04:20:13.703Z,49.35
2023-03-04T04:23:19.842Z,50.92
2023-03-04T04:26:29.128Z,49.48
2023-03-04T04:29:35.054Z,50.95
2023-03-04T04:32:44.377Z,50.35
2023-03-04T04:35:52.513Z,51.01
2023-03-04T04:38:59.267Z,53.90
2023-03-04T04:42:05.546Z,50.84
2023-03-04T04:45:14.085Z,47.54
2023-03-04T04:48:22.671Z,44.28
2023-03-04T04:51:29.810Z,43.61
2023-03-04T04:54:36.150Z,44.09
2023-03-04T04:57:42.950Z,47.66
2023-03-04T05:00:52.890Z,47.15
2023-03-04T05:04:02.279Z,47.88
2023-03-04T05:07:08.425Z,51.61
2023-03-04T05:10:16.017Z,52.13
2023-03-04T05:13:26.772Z,50.58
2023-03-04T05:16:34.248Z,50.04
2023-03-04T05:19:49.924Z,52.51
2023-03-04T05:22:59.482Z,52.95
2023-03-04T05:26:09.276Z,56.11
2023-03-04T05:29:18.004Z,50.65
2023-03-04T05:32:24.122Z,48.69
2023-03-04T05:35:38.567Z,48.95
2023-03-04T05:38:45.855Z,48.95
2023-03-04T05:41:52.514Z,51.08
2023-03-04T05:44:58.631Z,52.52
2023-03-04T05:48:13.461Z,52.28
2023-03-04T05:51:26.269Z,52.44
2023-03-04T05:54:35.025Z,48.56
2023-03-04T05:57:40.959Z,46.35
2023-03-04T06:00:50.700Z,45.34
2023-03-04T06:03:56.777Z,45.02
2023-03-04T06:07:09.850Z,43.98
2023-03-04T06:10:24.649Z,44.19
2023-03-04T06:13:31.664Z,42.94
2023-03-04T06:16:37.609Z,43.06
2023-03-04T06:19:44.773Z,41.36
2023-03-04T06:22:53.915Z,42.94
2023-03-04T06:26:04.003Z,44.42
2023-03-04T06:29:10.656Z,44.33
2023-03-04T06:32:17.609Z,45.49
2023-03-04T06:35:24.649Z,47.11
2023-03-04T06:38:34.394Z,46.17
2023-03-04T06:41:42.010Z,47.25
2023-03-04T06:44:54.903Z,47.68
2023-03-04T06:48:01.301Z,50.34
2023-03-04T06:51:19.915Z,50.16
2023-03-04T06:54:28.995Z,47.54
2023-03-04T06:57:35.696Z,48.40
2023-03-04T07:00:41.516Z,43.65
2023-03-04T07:03:49.921Z,44.95
2023-03-04T07:07:05.911Z,39.42
2023-03-04T07:10:27.420Z,36.93
2023-03-04T07:13:38.368Z,40.41
2023-03-04T07:16:45.326Z,44.31
2023-03-04T07:19:51.751Z,42.82
2023-03-04T07:22:58.527Z,36.29
2023-03-04T07:26:07.313Z,36.79
2023-03-04T07:29:14.050Z,36.20
2023-03-04T07:32:20.258Z,34.99
2023-03-04T07:35:26.933Z,34.51
2023-03-04T07:38:32.867Z,35.88
2023-03-04T07:41:43.306Z,34.04
2023-03-04T07:45:00.377Z,34.54
2023-03-04T07:48:30.936Z,34.65
2023-03-04T07:51:44.694Z,36.17
2023-03-04T07:54:51.489Z,36.26
2023-03-04T07:58:01.863Z,37.67
2023-03-04T08:01:13.604Z,36.81
2023-03-04T08:04:19.685Z,37.74
2023-03-04T08:07:28.957Z,40.01
2023-03-04T08:10:34.961Z,39.51
2023-03-04T08:13:45.106Z,38.55
2023-03-04T08:16:51.089Z,39.57
2023-03-04T08:19:57.910Z,41.93
2023-03-04T08:23:03.772Z,38.14
2023-03-04T08:26:13.968Z,38.04
2023-03-04T08:29:26.318Z,38.41
2023-03-04T08:32:33.501Z,40.80
2023-03-04T08:35:46.811Z,43.57
2023-03-04T08:38:53.720Z,48.07
2023-03-04T08:41:59.593Z,38.37
2023-03-04T08:45:16.948Z,38.02
2023-03-04T08:48:23.767Z,37.21
2023-03-04T08:51:35.936Z,33.49
2023-03-04T08:54:41.782Z,32.91
2023-03-04T08:57:48.551Z,32.89
2023-03-04T09:01:09.754Z,32.46
2023-03-04T09:04:16.646Z,31.88
2023-03-04T09:07:22.647Z,32.13
2023-03-04T09:10:30.180Z,32.23
2023-03-04T09:13:37.394Z,33.92
2023-03-04T09:16:46.648Z,33.01
2023-03-04T09:19:52.591Z,33.75
2023-03-04T09:23:02.563Z,31.80
2023-03-04T09:26:19.334Z,32.63
2023-03-04T09:29:26.554Z,42.90
2023-03-04T09:32:47.837Z,46.25
2023-03-04T09:35:59.228Z,41.63
2023-03-04T09:39:07.176Z,39.52
2023-03-04T09:42:29.125Z,36.34
2023-03-04T09:45:48.724Z,37.41
2023-03-04T09:49:00.186Z,33.86
2023-03-04T09:52:27.025Z,33.79
2023-03-04T09:55:40.742Z,34.18
2023-03-04T09:59:05.706Z,34.62
2023-03-04T10:02:38.096Z,36.46
2023-03-04T10:05:58.968Z,37.81
2023-03-04T10:09:16.691Z,44.99
2023-03-04T10:12:34.716Z,59.44
2023-03-04T10:15:46.504Z,56.12
2023-03-04T10:19:08.092Z,53.31
2023-03-04T10:22:39.453Z,59.32
2023-03-04T10:25:53.939Z,58.62
2023-03-04T10:29:03.179Z,58.10
2023-03-04T10:32:12.917Z,60.03
2023-03-04T10:35:39.415Z,60.85
2023-03-04T10:38:48.993Z,63.54
2023-03-04T10:42:03.795Z,66.92
2023-03-04T10:45:26.212Z,74.01
2023-03-04T10:48:35.467Z,73.91
2023-03-04T10:51:47.973Z,79.10
2023-03-04T10:55:01.657Z,81.58
2023-03-04T10:58:10.529Z,78.24
2023-03-04T11:01:26.713Z,75.13
2023-03-04T11:04:37.980Z,75.23
2023-03-04T11:07:55.563Z,74.16
2023-03-04T11:11:04.902Z,83.39
2023-03-04T11:14:26.277Z,81.71
2023-03-04T11:17:48.645Z,73.77
2023-03-04T11:21:01.181Z,62.99
2023-03-04T11:24:29.204Z,64.27
2023-03-04T11:27:54.406Z,65.68
2023-03-04T11:31:07.115Z,68.32
2023-03-04T11:34:35.062Z,61.81
2023-03-04T11:37:49.736Z,58.97
2023-03-04T11:41:04.753Z,65.37
2023-03-04T11:44:18.043Z,65.54
2023-03-04T11:47:48.161Z,57.25
2023-03-04T11:51:05.906Z,62.72
2023-03-04T11:54:32.961Z,68.84
2023-03-04T11:57:59.545Z,71.22
2023-03-04T12:01:16.159Z,79.81
2023-03-04T12:04:52.046Z,65.12
2023-03-04T12:08:38.118Z,69.81
2023-03-04T12:12:12.899Z,62.36
2023-03-04T12:15:32.013Z,66.38
2023-03-04T12:19:06.396Z,66.30
2023-03-04T12:22:34.366Z,56.14
2023-03-04T12:26:08.384Z,56.65
2023-03-04T12:29:38.684Z,48.93
2023-03-04T12:33:01.300Z,51.90
2023-03-04T12:36:37.630Z,58.66
2023-03-04T12:40:27.982Z,52.86
2023-03-04T12:43:50.693Z,51.36
2023-03-04T12:47:37.356Z,45.28
2023-03-04T12:51:07.151Z,48.88
2023-03-04T12:54:32.076Z,46.55
2023-03-04T12:57:41.239Z,46.44
2023-03-04T13:01:06.259Z,45.58
2023-03-04T13:04:26.913Z,45.16
2023-03-04T13:07:53.141Z,44.74
2023-03-04T13:11:47.585Z,45.96
2023-03-04T13:15:35.091Z,46.19
2023-03-04T13:18:42.284Z,47.62
2023-03-04T13:21:55.220Z,47.84
2023-03-04T13:25:26.267Z,47.03
2023-03-04T13:28:38.031Z,47.32
2023-03-04T13:32:04.481Z,46.00
2023-03-04T13:35:50.738Z,48.31
2023-03-04T13:39:08.907Z,44.29
2023-03-04T13:42:44.417Z,46.94
2023-03-04T13:45:53.943Z,47.21
2023-03-04T13:49:18.749Z,45.56
2023-03-04T13:52:46.760Z,43.97
2023-03-04T13:56:26.407Z,45.00
2023-03-04T13:59:48.945Z,47.14
2023-03-04T14:02:57.458Z,45.97
2023-03-04T14:06:22.921Z,47.55
2023-03-04T14:09:32.146Z,50.11
2023-03-04T14:12:44.558Z,48.66
2023-03-04T14:16:00.054Z,47.68
2023-03-04T14:19:19.022Z,48.66
2023-03-04T14:22:31.145Z,49.32
2023-03-04T14:25:39.297Z,48.26
2023-03-04T14:28:51.864Z,48.19
2023-03-04T14:32:01.585Z,44.82
2023-03-04T14:35:23.119Z,46.13
2023-03-04T14:38:36.392Z,49.16
2023-03-04T14:41:46.233Z,48.68
2023-03-04T14:44:56.211Z,48.27
2023-03-04T14:48:09.319Z,48.67
2023-03-04T14:51:41.767Z,51.18
2023-03-04T14:55:03.569Z,49.68
2023-03-04T14:58:27.011Z,50.55
2023-03-04T15:01:37.752Z,50.52
2023-03-04T15:04:44.695Z,50.07
2023-03-04T15:08:00.429Z,56.52
2023-03-04T15:11:11.313Z,54.54
2023-03-04T15:14:45.679Z,54.52
2023-03-04T15:18:01.621Z,53.99
2023-03-04T15:21:36.985Z,55.87
2023-03-04T15:24:46.302Z,60.16
2023-03-04T15:27:54.352Z,58.23
2023-03-04T15:31:01.228Z,63.44
2023-03-04T15:34:16.159Z,72.57
2023-03-04T15:37:29.666Z,66.58
2023-03-04T15:40:43.554Z,73.66
2023-03-04T15:43:50.518Z,71.25
2023-03-04T15:46:56.553Z,64.90
2023-03-04T15:50:03.851Z,63.94
2023-03-04T15:53:18.386Z,73.25
2023-03-04T15:56:31.298Z,73.31
2023-03-04T15:59:37.402Z,72.28
2023-03-04T16:02:45.037Z,60.88
2023-03-04T16:05:54.836Z,55.86
2023-03-04T16:09:07.096Z,59.11
2023-03-04T16:12:17.867Z,61.86
2023-03-04T16:15:29.055Z,60.02
2023-03-04T16:18:35.108Z,60.17
2023-03-04T16:21:42.165Z,59.85
2023-03-04T16:24:48.401Z,69.38
2023-03-04T16:28:02.865Z,67.15
2023-03-04T16:31:09.433Z,63.88
2023-03-04T16:34:18.713Z,58.70
2023-03-04T16:37:25.046Z,63.15
2023-03-04T16:40:34.588Z,73.83
2023-03-04T16:43:44.108Z,73.55
2023-03-04T16:46:50.912Z,57.88
2023-03-04T16:49:57.875Z,62.10
2023-03-04T16:53:04.925Z,59.52
2023-03-04T16:56:18.588Z,59.33
2023-03-04T16:59:31.593Z,57.57
2023-03-04T17:02:37.656Z,64.42
2023-03-04T17:05:44.578Z,69.86
2023-03-04T17:08:51.210Z,59.27
2023-03-04T17:11:59.988Z,54.41
2023-03-04T17:15:10.917Z,56.25
2023-03-04T17:18:17.842Z,67.45
2023-03-04T17:21:28.002Z,59.27
2023-03-04T17:24:35.450Z,60.28
2023-03-04T17:27:41.941Z,58.52
2023-03-04T17:30:51.497Z,62.72
2023-03-04T17:33:57.573Z,66.19
2023-03-04T17:37:04.496Z,77.83
2023-03-04T17:40:15.193Z,67.18
2023-03-04T17:43:22.227Z,62.42
2023-03-04T17:46:33.447Z,60.35
2023-03-04T17:49:44.787Z,60.42
2023-03-04T17:52:50.809Z,57.08
2023-03-04T17:56:02.215Z,58.46
2023-03-04T17:59:15.589Z,58.49
2023-03-04T18:02:25.298Z,58.68
2023-03-04T18:05:31.330Z,55.93
2023-03-04T18:08:38.255Z,55.10
2023-03-04T18:11:45.512Z,59.69
2023-03-04T18:14:52.384Z,60.11
2023-03-04T18:18:01.071Z,63.18
2023-03-04T18:21:08.951Z,64.46
2023-03-04T18:24:18.039Z,61.80
2023-03-04T18:27:25.099Z,65.06
2023-03-04T18:30:31.236Z,70.53
2023-03-04T18:33:41.960Z,64.35
2023-03-04T18:36:47.917Z,63.35
2023-03-04T18:39:54.777Z,67.12
2023-03-04T18:43:01.021Z,66.87
2023-03-04T18:46:14.897Z,69.09
2023-03-04T18:49:25.175Z,70.36
2023-03-04T18:52:32.130Z,70.72
2023-03-04T18:55:38.153Z,66.58
2023-03-04T18:58:50.624Z,64.99
2023-03-04T19:01:58.765Z,66.81
2023-03-04T19:05:15.824Z,73.03
2023-03-04T19:08:21.936Z,68.75
2023-03-04T19:11:30.152Z,62.55
2023-03-04T19:14:36.804Z,50.43
2023-03-04T19:17:45.545Z,48.38
2023-03-04T19:20:54.358Z,40.80
2023-03-04T19:24:01.615Z,39.69
2023-03-04T19:27:08.321Z,33.44
2023-03-04T19:30:18.964Z,33.00
2023-03-04T19:33:26.801Z,32.99
2023-03-04T19:36:38.701Z,31.61
2023-03-04T19:39:46.180Z,29.09
2023-03-04T19:42:57.069Z,27.79
2023-03-04T19:46:03.220Z,27.56
2023-03-04T19:49:10.574Z,27.65
2023-03-04T19:52:19.329Z,26.60
2023-03-04T19:55:26.377Z,24.40
2023-03-04T19:58:32.440Z,23.44
2023-03-04T20:01:40.972Z,25.13
2023-03-04T20:04:47.202Z,22.98
2023-03-04T20:07:57.024Z,24.16
2023-03-04T20:11:03.189Z,24.93
2023-03-04T20:14:10.301Z,23.48
2023-03-04T20:17:22.505Z,23.43
2023-03-04T20:20:33.232Z,22.66
2023-03-04T20:23:41.993Z,24.34
2023-03-04T20:26:49.381Z,24.06
2023-03-04T20:30:04.255Z,22.63
2023-03-04T20:33:25.699Z,21.03
2023-03-04T20:36:34.769Z,20.95
2023-03-04T20:39:44.569Z,20.19
2023-03-04T20:42:50.971Z,19.74
2023-03-04T20:45:58.085Z,19.92
2023-03-04T20:49:08.044Z,20.47
2023-03-04T20:52:34.135Z,20.30
2023-03-04T20:55:54.100Z,20.09
2023-03-04T20:59:15.788Z,19.07
2023-03-04T21:02:23.720Z,19.25
2023-03-04T21:05:30.599Z,18.64
2023-03-04T21:08:36.622Z,18.64
2023-03-04T21:11:48.401Z,18.09
2023-03-04T21:14:54.398Z,18.98
2023-03-04T21:18:01.169Z,19.48
2023-03-04T21:21:14.419Z,22.25
2023-03-04T21:24:29.479Z,23.63
2023-03-04T21:27:42.791Z,23.98
2023-03-04T21:30:49.826Z,23.42
2023-03-04T21:34:00.441Z,23.33
2023-03-04T21:37:09.203Z,23.81
2023-03-04T21:40:21.164Z,22.96
2023-03-04T21:43:36.724Z,24.68
2023-03-04T21:46:49.243Z,25.74
2023-03-04T21:50:03.759Z,22.82
2023-03-04T21:53:09.826Z,20.93
2023-03-04T21:56:17.503Z,21.63
2023-03-04T21:59:35.548Z,24.98
2023-03-04T22:02:42.776Z,18.14
2023-03-04T22:05:51.638Z,9.60
2023-03-04T22:08:59.950Z,8.44
2023-03-04T22:12:06.207Z,9.27
2023-03-04T22:15:15.879Z,9.61
2023-03-04T22:18:21.864Z,12.03
2023-03-04T22:21:30.616Z,12.47
2023-03-04T22:24:36.710Z,16.80
2023-03-04T22:27:43.696Z,16.76
2023-03-04T22:30:52.399Z,16.48
2023-03-04T22:34:00.270Z,17.58
2023-03-04T22:37:09.514Z,20.33
2023-03-04T22:40:18.104Z,28.14
2023-03-04T22:43:24.090Z,26.06
2023-03-04T22:46:43.915Z,21.90
2023-03-04T22:49:49.953Z,18.44
2023-03-04T22:52:59.776Z,18.41
2023-03-04T22:56:11.220Z,17.57
2023-03-04T22:59:18.044Z,16.54
2023-03-04T23:02:27.128Z,15.69
2023-03-04T23:05:36.410Z,14.23
2023-03-04T23:08:46.489Z,14.35
2023-03-04T23:11:58.832Z,13.96
2023-03-04T23:15:08.523Z,14.84
2023-03-04T23:18:18.224Z,17.38
2023-03-04T23:21:33.982Z,21.00
2023-03-04T23:24:42.583Z,27.48
2023-03-04T23:27:51.220Z,31.24
2023-03-04T23:30:58.315Z,30.90
2023-03-04T23:34:08.149Z,35.46
2023-03-04T23:37:14.946Z,34.88
2023-03-04T23:40:21.400Z,33.71
2023-03-04T23:43:30.202Z,33.20
2023-03-04T23:46:37.922Z,35.08
2023-03-04T23:49:47.423Z,34.49
2023-03-04T23:52:53.543Z,38.72
2023-03-04T23:56:00.330Z,34.58
2023-03-04T23:59:07.973Z,27.27
